Terminal Aerodrome Forecast
Issued by NWS Upton, NY

Home | Current Version | Previous Version | Text Only | Print | Product List | Glossary On
Versions: 1 2 3 4 5 6 7 8 9 10 11 12 13 14 15 16 17 18 19 20 21 22 23 24 25 26 27 28
217
FTUS41 KOKX 251948 AAA
TAFEWR
TAF AMD
KEWR 251948Z 2520/2624 04013KT 3SM -RA BR OVC009
      TEMPO 2521/2523 1SM RA OVC006
     FM260400 04011KT 1SM -RA BR OVC005
     FM260700 05010KT 1SM -RA BR OVC003
     FM261500 03008KT 3SM BR VCSH BKN005 OVC009
     FM261800 02007KT 6SM BR BKN008 OVC015=

USA.gov is the U.S. government's official web portal to all federal, state and local government web resources and services.